Time;durP1;ratioP1;P1;durP2;ratioP2;P2;SDS_P1;SDS_P2;PMS_P1;PMS_P2;Temp;Humidity;BMP_temperature;BMP_pressure;BME280_temperature;BME280_humidity;BME280_pressure;Samples;Min_cycle;Max_cycle;Signal;HPM_P1;HPM_P2
2023/01/21 00:00:24;;;;;;;0.00;0.00;;;;;;;0.14;73.99;98920.00;4923560;28;20251;-63
2023/01/21 00:02:50;;;;;;;0.00;0.00;;;;;;;0.15;73.08;98918.28;4926941;28;20239;-63
2023/01/21 00:05:18;;;;;;;0.00;0.00;;;;;;;0.17;73.94;98918.19;4928147;28;20227;-63
2023/01/21 00:07:45;;;;;;;0.00;0.00;;;;;;;0.10;74.12;98915.13;4924872;28;20618;-64
2023/01/21 00:10:12;;;;;;;0.00;0.00;;;;;;;0.08;76.06;98912.63;4929030;28;20614;-63
2023/01/21 00:12:38;;;;;;;0.00;0.00;;;;;;;0.06;76.89;98908.47;4927679;28;20235;-64
2023/01/21 00:15:06;;;;;;;0.00;0.00;;;;;;;0.07;76.21;98905.00;4932342;28;20231;-63
2023/01/21 00:17:34;;;;;;;0.00;0.00;;;;;;;0.04;76.82;98915.44;4923844;28;20274;-63
2023/01/21 00:20:01;;;;;;;0.00;0.00;;;;;;;0.02;77.31;98909.53;4922897;28;20572;-63
2023/01/21 00:22:30;;;;;;;0.00;0.00;;;;;;;0.05;78.02;98909.38;4924991;28;20235;-63
2023/01/21 00:24:57;;;;;;;0.00;0.00;;;;;;;0.01;78.44;98908.69;4930032;28;20241;-63
2023/01/21 00:27:24;;;;;;;0.00;0.00;;;;;;;0.01;79.55;98911.25;4932793;28;20317;-64
2023/01/21 00:29:50;;;;;;;0.00;0.00;;;;;;;-0.03;79.27;98912.34;4918209;28;20250;-64
2023/01/21 00:32:18;;;;;;;0.00;0.00;;;;;;;-0.06;80.16;98915.88;4931645;28;20238;-64
2023/01/21 00:34:45;;;;;;;0.00;0.00;;;;;;;-0.05;81.40;98911.59;4925609;28;20688;-64
2023/01/21 00:37:11;;;;;;;0.00;0.00;;;;;;;-0.07;80.50;98909.09;4933663;28;20293;-64
2023/01/21 00:39:41;;;;;;;0.00;0.00;;;;;;;-0.11;81.25;98911.91;4933542;28;20622;-64
2023/01/21 00:42:09;;;;;;;0.00;0.00;;;;;;;-0.14;82.55;98917.19;4934884;28;20235;-63
2023/01/21 00:44:36;;;;;;;0.00;0.00;;;;;;;-0.14;84.22;98912.06;4928274;28;20631;-63
2023/01/21 00:47:03;;;;;;;0.00;0.00;;;;;;;-0.24;84.95;98909.94;4932781;28;20234;-63
2023/01/21 00:49:29;;;;;;;0.00;0.00;;;;;;;-0.29;85.43;98909.34;4929774;28;20214;-63
2023/01/21 00:51:56;;;;;;;0.00;0.00;;;;;;;-0.34;86.19;98913.84;4926446;28;20231;-63
2023/01/21 00:54:23;;;;;;;0.00;0.00;;;;;;;-0.36;85.79;98923.34;4930921;28;20245;-63
2023/01/21 00:56:51;;;;;;;0.00;0.00;;;;;;;-0.41;86.09;98927.88;4927160;28;20371;-63
2023/01/21 00:59:17;;;;;;;0.00;0.00;;;;;;;-0.41;86.72;98928.69;4928744;28;20223;-63
2023/01/21 01:01:44;;;;;;;0.00;0.00;;;;;;;-0.43;86.88;98937.38;4927147;28;20286;-63
2023/01/21 01:04:11;;;;;;;0.00;0.00;;;;;;;-0.47;87.19;98934.97;4924332;28;20262;-63
2023/01/21 01:06:38;;;;;;;0.00;0.00;;;;;;;-0.53;87.18;98942.13;4930828;28;20579;-63
2023/01/21 01:09:04;;;;;;;0.00;0.00;;;;;;;-0.58;86.82;98946.66;4933350;28;20286;-63
2023/01/21 01:11:31;;;;;;;0.00;0.00;;;;;;;-0.56;87.06;98950.78;4929711;28;20233;-63
2023/01/21 01:13:59;;;;;;;0.00;0.00;;;;;;;-0.58;88.09;98959.47;4924702;28;20584;-63
2023/01/21 01:16:26;;;;;;;0.00;0.00;;;;;;;-0.62;88.17;98959.59;4929476;28;20234;-63
2023/01/21 01:18:52;;;;;;;0.00;0.00;;;;;;;-0.67;88.09;98969.25;4929817;28;20290;-63
2023/01/21 01:21:20;;;;;;;0.00;0.00;;;;;;;-0.72;88.42;98966.06;4933271;28;20722;-63
2023/01/21 01:23:47;;;;;;;0.00;0.00;;;;;;;-0.75;88.28;98968.75;4933947;28;20231;-63
2023/01/21 01:26:16;;;;;;;0.00;0.00;;;;;;;-0.80;88.32;98981.78;4931057;28;20234;-63
2023/01/21 01:28:43;;;;;;;0.00;0.00;;;;;;;-0.85;88.42;98978.59;4926663;28;20238;-58
2023/01/21 01:31:13;;;;;;;0.00;0.00;;;;;;;-0.86;89.00;98978.69;4928641;28;20227;-64
2023/01/21 01:33:39;;;;;;;0.00;0.00;;;;;;;-0.93;89.04;98984.06;4927185;28;20242;-63
2023/01/21 01:36:08;;;;;;;0.00;0.00;;;;;;;-0.92;89.62;98987.44;4928588;28;20226;-63
2023/01/21 01:38:35;;;;;;;0.00;0.00;;;;;;;-0.94;88.64;98984.13;4925465;28;20245;-63
2023/01/21 01:41:02;;;;;;;0.00;0.00;;;;;;;-1.02;87.92;98986.19;4930468;28;20696;-63
2023/01/21 01:43:51;;;;;;;0.00;0.00;;;;;;;-1.08;88.44;98987.31;4930635;28;20619;-64
2023/01/21 01:46:19;;;;;;;0.00;0.00;;;;;;;-1.15;89.77;98991.91;4929241;28;20237;-64
2023/01/21 01:48:50;;;;;;;0.00;0.00;;;;;;;-1.15;90.49;98993.59;4928056;28;20241;-64
2023/01/21 01:51:19;;;;;;;0.00;0.00;;;;;;;-1.30;90.49;99001.06;4934184;28;20222;-63
2023/01/21 01:53:47;;;;;;;0.00;0.00;;;;;;;-1.32;90.70;98996.91;4930126;28;20231;-64
2023/01/21 01:56:15;;;;;;;0.00;0.00;;;;;;;-1.45;90.90;98999.16;4936812;28;20228;-64
2023/01/21 01:58:43;;;;;;;0.00;0.00;;;;;;;-1.50;91.11;99005.31;4927607;28;20234;-64
2023/01/21 02:01:10;;;;;;;0.00;0.00;;;;;;;-1.62;91.78;99008.41;4930147;28;20241;-64
2023/01/21 02:03:49;;;;;;;0.00;0.00;;;;;;;-1.66;91.70;99009.44;4928145;28;20237;-64
2023/01/21 02:06:18;;;;;;;0.00;0.00;;;;;;;-1.67;92.38;99011.13;4933023;28;20242;-64
2023/01/21 02:08:46;;;;;;;0.00;0.00;;;;;;;-1.65;92.73;99022.16;4924343;28;20241;-64
2023/01/21 02:11:14;;;;;;;0.00;0.00;;;;;;;-1.64;93.46;99020.44;4926848;28;20241;-64
2023/01/21 02:13:44;;;;;;;0.00;0.00;;;;;;;-1.64;93.11;99016.13;4932998;28;20227;-64
2023/01/21 02:16:24;;;;;;;0.00;0.00;;;;;;;-1.73;92.48;99024.19;4933949;28;20230;-64
2023/01/21 02:19:01;;;;;;;0.00;0.00;;;;;;;-1.82;92.36;99027.97;4924135;28;20598;-64
2023/01/21 02:21:53;;;;;;;0.00;0.00;;;;;;;-1.88;93.06;99022.25;4929209;28;20238;-64
2023/01/21 02:24:53;;;;;;;0.00;0.00;;;;;;;-1.93;93.06;99027.56;4928990;28;20218;-64
2023/01/21 02:27:42;;;;;;;0.00;0.00;;;;;;;-1.91;94.10;99028.34;4930669;28;20230;-63
2023/01/21 02:30:39;;;;;;;0.00;0.00;;;;;;;-2.04;92.79;99027.97;4924835;28;20958;-64
2023/01/21 02:33:34;;;;;;;0.00;0.00;;;;;;;-2.12;93.46;99033.41;4927537;29;20587;-64
2023/01/21 02:36:15;;;;;;;0.00;0.00;;;;;;;-2.25;95.26;99035.63;4925572;28;20236;-64
2023/01/21 02:38:48;;;;;;;0.00;0.00;;;;;;;-2.34;94.67;99043.66;4928970;28;20246;-64
2023/01/21 02:41:28;;;;;;;0.00;0.00;;;;;;;-2.41;94.68;99042.22;4924794;28;20228;-64
2023/01/21 02:44:06;;;;;;;0.10;0.10;;;;;;;-2.50;94.86;99045.13;4922787;28;20250;-64
2023/01/21 02:46:39;;;;;;;0.00;0.00;;;;;;;-2.56;96.07;99047.03;4923696;28;20742;-64
2023/01/21 02:49:15;;;;;;;0.00;0.00;;;;;;;-2.56;96.55;99041.91;4925741;28;20600;-64
2023/01/21 02:51:46;;;;;;;0.00;0.00;;;;;;;-2.61;97.45;99046.34;4925253;28;20770;-64
2023/01/21 02:54:14;;;;;;;0.00;0.00;;;;;;;-2.62;97.65;99054.06;4927645;28;20239;-63
2023/01/21 02:56:43;;;;;;;0.00;0.00;;;;;;;-2.55;96.93;99051.25;4929712;28;20237;-63
2023/01/21 02:59:10;;;;;;;0.00;0.00;;;;;;;-2.60;97.98;99052.28;4926703;28;20235;-63
2023/01/21 03:01:49;;;;;;;0.00;0.00;;;;;;;-2.66;97.85;99055.91;4926383;28;20297;-63
2023/01/21 03:04:33;;;;;;;0.00;0.00;;;;;;;-2.77;98.05;99053.78;4937263;28;20229;-64
2023/01/21 03:07:07;;;;;;;0.00;0.00;;;;;;;-2.77;98.16;99048.66;4931986;28;20692;-64
2023/01/21 03:09:34;;;;;;;0.00;0.00;;;;;;;-2.78;98.32;99064.88;4923910;28;20239;-64
2023/01/21 03:12:26;;;;;;;0.00;0.00;;;;;;;-2.72;98.17;99066.38;4931843;28;20244;-64
2023/01/21 03:17:53;;;;;;;0.00;0.00;;;;;;;-2.61;97.64;99059.13;4907391;28;20710;-64
2023/01/21 03:20:25;;;;;;;0.03;0.03;;;;;;;-2.57;98.52;99067.50;4925838;28;20235;-64
2023/01/21 03:22:56;;;;;;;0.03;0.03;;;;;;;-2.58;98.37;99069.25;4927636;28;20245;-64
2023/01/21 03:25:24;;;;;;;0.00;0.00;;;;;;;-2.55;98.54;99066.59;4927785;28;20298;-64
2023/01/21 03:27:52;;;;;;;0.00;0.00;;;;;;;-2.52;98.92;99063.06;4924062;28;20687;-64
2023/01/21 03:30:22;;;;;;;0.00;0.00;;;;;;;-2.57;98.33;99065.81;4923053;28;20232;-64
2023/01/21 03:32:51;;;;;;;0.00;0.00;;;;;;;-2.57;98.37;99064.94;4927277;28;20234;-63
2023/01/21 03:35:23;;;;;;;0.00;0.00;;;;;;;-2.62;97.52;99061.75;4933617;28;20237;-64
2023/01/21 03:37:55;;;;;;;0.00;0.00;;;;;;;-2.68;97.68;99067.91;4923599;28;20284;-64
2023/01/21 03:40:25;;;;;;;0.00;0.00;;;;;;;-2.70;97.60;99067.16;4929907;28;20235;-63
2023/01/21 03:42:55;;;;;;;0.00;0.00;;;;;;;-2.77;98.01;99071.66;4928569;28;20309;-64
2023/01/21 03:45:32;;;;;;;0.00;0.00;;;;;;;-2.87;96.94;99068.59;4922628;28;20338;-64
2023/01/21 03:48:05;;;;;;;0.00;0.00;;;;;;;-2.98;97.27;99068.97;4924623;29;20245;-64
2023/01/21 03:50:38;;;;;;;0.00;0.00;;;;;;;-2.96;96.89;99074.00;4924479;28;20296;-64
2023/01/21 03:53:05;;;;;;;0.00;0.00;;;;;;;-3.07;96.44;99065.91;4929392;28;20234;-64
2023/01/21 03:55:34;;;;;;;0.00;0.00;;;;;;;-3.18;96.82;99067.09;4925298;28;20233;-63
2023/01/21 03:58:01;;;;;;;0.00;0.00;;;;;;;-3.22;96.41;99064.72;4931449;28;20804;-64
2023/01/21 04:00:27;;;;;;;0.10;0.10;;;;;;;-3.25;96.40;99073.34;4931064;28;20253;-64
2023/01/21 04:02:54;;;;;;;0.00;0.00;;;;;;;-3.28;96.30;99065.78;4927738;28;20264;-64
2023/01/21 04:05:20;;;;;;;0.00;0.00;;;;;;;-3.34;96.19;99071.09;4929216;28;20702;-64
2023/01/21 04:07:48;;;;;;;0.00;0.00;;;;;;;-3.40;96.58;99074.66;4923801;28;20633;-64
2023/01/21 04:10:16;;;;;;;0.10;0.10;;;;;;;-3.30;98.80;99075.22;4934997;28;20250;-64
2023/01/21 04:12:42;;;;;;;0.00;0.00;;;;;;;-3.36;98.77;99080.50;4928337;28;20231;-64
2023/01/21 04:15:10;;;;;;;0.00;0.00;;;;;;;-3.42;99.45;99084.09;4928767;28;20240;-63
2023/01/21 04:17:37;;;;;;;0.00;0.00;;;;;;;-3.51;99.38;99082.69;4930464;28;20230;-64
2023/01/21 04:20:03;;;;;;;0.07;0.07;;;;;;;-3.58;98.63;99081.22;4926364;28;20285;-64
2023/01/21 04:22:30;;;;;;;0.00;0.00;;;;;;;-3.61;99.16;99084.69;4925374;28;20298;-64
2023/01/21 04:24:58;;;;;;;0.00;0.00;;;;;;;-3.59;98.53;99089.75;4930051;28;20301;-64
2023/01/21 04:27:24;;;;;;;0.00;0.00;;;;;;;-3.65;99.10;99090.78;4897348;28;1090832;-63
2023/01/21 04:29:51;;;;;;;0.00;0.00;;;;;;;-3.72;99.50;99097.00;4927672;28;20659;-63
2023/01/21 04:32:18;;;;;;;0.07;0.07;;;;;;;-3.77;99.75;99101.41;5139765;23;21065;-59
2023/01/21 04:34:44;;;;;;;0.10;0.10;;;;;;;-3.88;99.48;99097.47;4925593;28;20886;-59
2023/01/21 04:37:11;;;;;;;0.00;0.00;;;;;;;-3.84;98.71;99103.28;4929735;28;20229;-58
2023/01/21 04:39:37;;;;;;;0.00;0.00;;;;;;;-3.91;97.54;99100.13;4928367;28;20223;-59
2023/01/21 04:42:06;;;;;;;0.00;0.00;;;;;;;-3.82;97.71;99104.09;4932292;28;20245;-59
2023/01/21 04:44:33;;;;;;;0.00;0.00;;;;;;;-3.79;97.14;99104.00;4926620;28;20288;-58
2023/01/21 04:46:59;;;;;;;0.00;0.00;;;;;;;-3.72;97.48;99105.47;4936725;28;20259;-58
2023/01/21 04:49:26;;;;;;;0.00;0.00;;;;;;;-3.72;96.71;99102.09;4940225;28;20246;-59
2023/01/21 04:51:52;;;;;;;0.00;0.00;;;;;;;-3.65;97.40;99108.63;4926295;28;20707;-59
2023/01/21 04:54:19;;;;;;;0.10;0.10;;;;;;;-3.67;97.34;99112.97;4937233;28;20290;-59
2023/01/21 04:56:45;;;;;;;0.10;0.10;;;;;;;-3.67;97.62;99115.50;4925949;28;20639;-59
2023/01/21 04:59:13;;;;;;;0.00;0.00;;;;;;;-3.53;96.76;99119.34;4927433;28;20260;-60
2023/01/21 05:01:40;;;;;;;0.00;0.00;;;;;;;-3.38;97.49;99112.91;4933301;28;20739;-59
2023/01/21 05:04:06;;;;;;;0.00;0.00;;;;;;;-3.24;98.44;99118.41;4930072;28;20627;-59
2023/01/21 05:06:33;;;;;;;0.00;0.00;;;;;;;-3.12;98.39;99119.69;4927976;28;20572;-59
2023/01/21 05:08:59;;;;;;;0.00;0.00;;;;;;;-3.11;98.35;99119.63;4932350;28;20239;-59
2023/01/21 05:11:26;;;;;;;0.00;0.00;;;;;;;-3.03;96.65;99118.53;4932754;28;20253;-57
2023/01/21 05:13:53;;;;;;;0.00;0.00;;;;;;;-3.01;95.88;99120.16;4929373;28;20240;-59
2023/01/21 05:16:21;;;;;;;0.00;0.00;;;;;;;-2.93;94.67;99125.00;4926671;28;20658;-60
2023/01/21 05:18:48;;;;;;;0.00;0.00;;;;;;;-2.78;93.55;99128.75;4933180;28;20245;-58
2023/01/21 05:21:15;;;;;;;0.00;0.00;;;;;;;-2.70;93.31;99131.03;4933360;28;20275;-58
2023/01/21 05:23:41;;;;;;;0.00;0.00;;;;;;;-2.69;93.03;99130.13;4931490;28;20751;-57
2023/01/21 05:26:08;;;;;;;0.00;0.00;;;;;;;-2.67;92.20;99128.38;4930922;28;20970;-58
2023/01/21 05:28:34;;;;;;;0.00;0.00;;;;;;;-2.62;92.90;99140.97;4935709;28;20297;-59
2023/01/21 05:31:02;;;;;;;0.00;0.00;;;;;;;-2.61;93.50;99143.47;4929662;28;20239;-57
2023/01/21 05:33:34;;;;;;;0.00;0.00;;;;;;;-2.61;92.63;99143.47;4934574;28;20257;-57
2023/01/21 05:36:03;;;;;;;0.00;0.00;;;;;;;-2.68;91.93;99142.03;4936554;28;20233;-59
2023/01/21 05:38:30;;;;;;;0.00;0.00;;;;;;;-2.67;88.61;99143.69;4929242;28;20238;-57
2023/01/21 05:40:57;;;;;;;0.00;0.00;;;;;;;-2.75;88.07;99143.97;4925180;28;21959;-57
2023/01/21 05:43:24;;;;;;;0.00;0.00;;;;;;;-2.80;88.61;99150.97;4931703;28;20234;-58
2023/01/21 05:45:51;;;;;;;0.00;0.00;;;;;;;-2.93;89.60;99150.53;4925524;28;20254;-56
2023/01/21 05:48:17;;;;;;;0.00;0.00;;;;;;;-3.03;88.02;99154.28;4929687;28;20286;-59
2023/01/21 05:50:45;;;;;;;0.00;0.00;;;;;;;-3.11;87.75;99160.50;4925791;28;20293;-57
2023/01/21 05:53:12;;;;;;;0.00;0.00;;;;;;;-3.20;87.39;99160.81;4930434;28;20679;-57
2023/01/21 05:55:38;;;;;;;0.00;0.00;;;;;;;-3.24;86.81;99166.06;4929329;28;20234;-58
2023/01/21 05:58:05;;;;;;;0.00;0.00;;;;;;;-3.37;87.13;99165.66;4927854;28;20292;-59
2023/01/21 06:00:32;;;;;;;0.00;0.00;;;;;;;-3.44;87.62;99164.97;4927150;28;20266;-57
2023/01/21 06:03:00;;;;;;;0.00;0.00;;;;;;;-3.54;88.10;99173.81;4928016;28;20731;-59
2023/01/21 06:05:27;;;;;;;0.00;0.00;;;;;;;-3.53;89.44;99181.44;4930291;28;20594;-58
2023/01/21 06:07:55;;;;;;;0.00;0.00;;;;;;;-3.61;89.74;99174.00;4931921;28;20239;-58
2023/01/21 06:10:21;;;;;;;0.10;0.10;;;;;;;-3.58;90.33;99178.19;4938583;28;20230;-58
2023/01/21 06:12:50;;;;;;;0.10;0.10;;;;;;;-3.63;89.80;99175.78;4926461;28;20241;-58
2023/01/21 06:15:16;;;;;;;0.00;0.00;;;;;;;-3.68;89.09;99175.06;4934865;28;20235;-58
2023/01/21 06:17:43;;;;;;;0.00;0.00;;;;;;;-3.75;89.01;99176.16;4932627;28;20290;-59
2023/01/21 06:20:11;;;;;;;0.00;0.00;;;;;;;-3.79;89.14;99177.16;4931486;28;20300;-59
2023/01/21 06:22:37;;;;;;;0.00;0.00;;;;;;;-3.76;88.70;99180.44;4927709;28;20243;-58
2023/01/21 06:25:06;;;;;;;0.00;0.00;;;;;;;-3.87;88.93;99182.47;4926113;28;20695;-58
2023/01/21 06:27:33;;;;;;;0.00;0.00;;;;;;;-3.76;89.21;99192.38;4926429;28;20229;-59
2023/01/21 06:29:59;;;;;;;0.00;0.00;;;;;;;-3.83;90.73;99191.69;4931057;28;20253;-59
2023/01/21 06:32:26;;;;;;;0.03;0.03;;;;;;;-3.75;90.66;99201.69;4933853;28;20234;-58
2023/01/21 06:34:52;;;;;;;0.00;0.00;;;;;;;-3.79;91.46;99211.13;4925043;28;20734;-57
2023/01/21 06:37:19;;;;;;;0.10;0.10;;;;;;;-3.86;91.00;99207.09;4931677;28;20709;-57
2023/01/21 06:39:45;;;;;;;0.00;0.00;;;;;;;-3.86;90.81;99202.00;4923837;28;20634;-58
2023/01/21 06:42:13;;;;;;;0.00;0.00;;;;;;;-3.87;91.11;99200.31;4929046;28;20246;-58
2023/01/21 06:44:40;;;;;;;0.00;0.00;;;;;;;-3.80;90.17;99206.09;4928523;28;20240;-58
2023/01/21 06:47:07;;;;;;;0.00;0.00;;;;;;;-3.86;90.39;99204.53;4929599;28;20284;-58
2023/01/21 06:49:33;;;;;;;0.00;0.00;;;;;;;-3.86;91.19;99204.53;4928629;28;20388;-58
2023/01/21 06:52:00;;;;;;;0.00;0.00;;;;;;;-3.83;91.01;99224.84;4931890;28;20233;-59
2023/01/21 06:54:26;;;;;;;0.10;0.10;;;;;;;-3.81;90.94;99230.75;4931947;28;20239;-57
2023/01/21 06:56:53;;;;;;;0.00;0.00;;;;;;;-3.89;91.39;99231.00;4930840;28;20241;-58
2023/01/21 06:59:21;;;;;;;0.00;0.00;;;;;;;-3.94;91.57;99240.47;4927935;28;20300;-59
2023/01/21 07:01:47;;;;;;;0.10;0.10;;;;;;;-3.79;92.01;99234.09;4923778;28;20293;-58
2023/01/21 07:04:14;;;;;;;0.00;0.00;;;;;;;-3.70;91.08;99238.06;4931184;28;20241;-57
2023/01/21 07:06:41;;;;;;;0.03;0.03;;;;;;;-3.64;91.54;99244.72;4928896;28;20241;-58
2023/01/21 07:09:08;;;;;;;0.10;0.10;;;;;;;-3.73;91.36;99239.00;4929576;28;20626;-58
2023/01/21 07:11:35;;;;;;;0.00;0.00;;;;;;;-3.74;90.94;99244.19;4925624;28;20380;-59
2023/01/21 07:14:01;;;;;;;0.00;0.00;;;;;;;-3.79;91.28;99249.41;4927271;28;20286;-57
2023/01/21 07:16:29;;;;;;;0.00;0.00;;;;;;;-3.78;90.80;99245.16;4928690;28;20703;-58
2023/01/21 07:18:56;;;;;;;0.00;0.00;;;;;;;-3.80;90.60;99245.16;4926321;28;20642;-57
2023/01/21 07:21:24;;;;;;;0.00;0.00;;;;;;;-3.92;92.07;99253.19;4930866;28;20242;-58
2023/01/21 07:23:52;;;;;;;0.00;0.00;;;;;;;-3.81;94.63;99261.34;4925222;28;20747;-58
2023/01/21 07:26:18;;;;;;;0.03;0.03;;;;;;;-3.84;95.08;99256.34;4930480;28;20293;-57
2023/01/21 07:28:45;;;;;;;0.10;0.10;;;;;;;-3.90;95.26;99259.06;4925844;28;20384;-58
2023/01/21 07:31:12;;;;;;;0.00;0.00;;;;;;;-3.91;96.48;99271.00;4929260;28;20958;-58
2023/01/21 07:33:40;;;;;;;0.10;0.10;;;;;;;-3.90;96.93;99269.28;4929165;28;20324;-58
2023/01/21 07:36:08;;;;;;;0.00;0.00;;;;;;;-3.94;96.83;99270.25;4932867;28;20253;-56
2023/01/21 07:38:34;;;;;;;0.00;0.00;;;;;;;-3.98;96.87;99274.59;4927208;28;20238;-58
2023/01/21 07:41:01;;;;;;;0.10;0.10;;;;;;;-3.97;97.77;99275.44;4925628;28;20241;-57
2023/01/21 07:43:27;;;;;;;0.00;0.00;;;;;;;-3.93;95.57;99280.41;4929856;28;20233;-56
2023/01/21 07:45:55;;;;;;;0.10;0.10;;;;;;;-3.90;95.23;99280.31;4921845;28;20234;-58
2023/01/21 07:48:21;;;;;;;0.00;0.00;;;;;;;-3.76;95.53;99279.09;4932108;28;20929;-57
2023/01/21 07:50:49;;;;;;;0.00;0.00;;;;;;;-3.73;95.34;99276.47;4924603;28;20244;-56
2023/01/21 07:53:16;;;;;;;0.07;0.07;;;;;;;-3.78;95.55;99289.34;4924033;28;20230;-58
2023/01/21 07:55:42;;;;;;;0.07;0.07;;;;;;;-3.77;95.88;99287.63;4925076;28;20237;-59
2023/01/21 07:58:09;;;;;;;0.00;0.00;;;;;;;-3.74;95.96;99293.47;4929291;28;20242;-58
2023/01/21 08:00:36;;;;;;;0.00;0.00;;;;;;;-3.58;96.33;99298.94;4925865;28;20321;-57
2023/01/21 08:03:02;;;;;;;0.00;0.00;;;;;;;-3.53;96.21;99298.00;4925695;28;20941;-55
2023/01/21 08:05:29;;;;;;;0.10;0.10;;;;;;;-3.48;96.56;99297.00;4929463;28;20880;-54
2023/01/21 08:07:58;;;;;;;0.10;0.10;;;;;;;-3.42;96.53;99306.16;4924653;28;20241;-56
2023/01/21 08:10:26;;;;;;;0.00;0.00;;;;;;;-3.37;96.19;99308.59;4931281;28;20236;-57
2023/01/21 08:12:52;;;;;;;0.00;0.00;;;;;;;-3.30;95.47;99310.09;4931195;28;20254;-56
2023/01/21 08:15:19;;;;;;;0.00;0.00;;;;;;;-3.17;94.56;99307.97;4928959;28;20245;-57
2023/01/21 08:17:46;;;;;;;0.00;0.00;;;;;;;-3.11;94.55;99306.06;4928437;28;20234;-57
2023/01/21 08:20:13;;;;;;;0.00;0.00;;;;;;;-3.05;93.73;99314.41;4929857;28;20248;-59
2023/01/21 08:22:40;;;;;;;0.00;0.00;;;;;;;-2.89;93.07;99307.13;4923982;28;20250;-59
2023/01/21 08:25:09;;;;;;;0.00;0.00;;;;;;;-2.80;93.08;99323.88;4924487;28;20568;-58
2023/01/21 08:27:36;;;;;;;0.00;0.00;;;;;;;-2.70;93.29;99320.13;4925705;28;20235;-58
2023/01/21 08:30:02;;;;;;;0.00;0.00;;;;;;;-2.67;93.04;99318.34;4930147;28;20235;-57
2023/01/21 08:32:29;;;;;;;0.00;0.00;;;;;;;-2.60;94.06;99324.06;4933059;28;20634;-56
2023/01/21 08:34:56;;;;;;;0.00;0.00;;;;;;;-2.55;94.36;99329.88;4927989;28;20305;-55
2023/01/21 08:37:22;;;;;;;0.00;0.00;;;;;;;-2.49;93.31;99330.56;4927995;28;20301;-56
2023/01/21 08:39:49;;;;;;;0.00;0.00;;;;;;;-2.41;93.69;99334.50;4929982;28;20701;-59
2023/01/21 08:42:17;;;;;;;0.00;0.00;;;;;;;-2.30;93.09;99331.59;4923738;28;20299;-58
2023/01/21 08:44:44;;;;;;;0.00;0.00;;;;;;;-2.23;92.74;99332.22;4932137;28;20351;-57
2023/01/21 08:47:11;;;;;;;0.00;0.00;;;;;;;-2.13;92.50;99333.59;4933627;28;20275;-57
2023/01/21 08:49:37;;;;;;;0.00;0.00;;;;;;;-2.04;91.45;99341.81;4933701;28;20234;-57
2023/01/21 08:52:04;;;;;;;0.00;0.00;;;;;;;-2.03;91.71;99336.63;4926839;28;20330;-58
2023/01/21 08:54:31;;;;;;;0.00;0.00;;;;;;;-1.98;90.38;99339.06;4930118;28;20305;-58
2023/01/21 08:56:57;;;;;;;0.07;0.07;;;;;;;-1.94;90.62;99344.00;4928448;28;20238;-58
2023/01/21 08:59:27;;;;;;;0.00;0.00;;;;;;;-1.88;89.43;99339.56;4929774;28;20766;-58
2023/01/21 09:01:54;;;;;;;0.00;0.00;;;;;;;-1.84;89.61;99346.25;4926151;28;20227;-58
2023/01/21 09:04:20;;;;;;;0.00;0.00;;;;;;;-1.76;89.65;99339.13;4932209;28;20241;-59
2023/01/21 09:06:48;;;;;;;0.00;0.00;;;;;;;-1.69;88.59;99353.38;4927978;28;20238;-59
2023/01/21 09:09:14;;;;;;;0.00;0.00;;;;;;;-1.61;89.23;99353.13;4929943;28;20238;-61
2023/01/21 09:11:41;;;;;;;0.00;0.00;;;;;;;-1.50;89.57;99361.22;4929970;28;20234;-60
2023/01/21 09:14:08;;;;;;;0.00;0.00;;;;;;;-1.49;89.59;99362.88;4929633;28;20230;-58
2023/01/21 09:16:36;;;;;;;0.00;0.00;;;;;;;-1.43;90.39;99366.09;4927121;28;20222;-59
2023/01/21 09:19:03;;;;;;;0.00;0.00;;;;;;;-1.36;90.26;99363.28;4927567;28;20297;-60
2023/01/21 09:21:30;;;;;;;0.00;0.00;;;;;;;-1.24;89.06;99366.28;4934688;28;20241;-59
2023/01/21 09:23:56;;;;;;;0.00;0.00;;;;;;;-1.15;89.10;99370.22;4921077;28;20231;-59
2023/01/21 09:26:24;;;;;;;0.00;0.00;;;;;;;-0.50;100.00;99371.09;4927937;28;20244;-57
2023/01/21 09:28:52;;;;;;;0.00;0.00;;;;;;;-0.60;100.00;99375.75;4926872;28;20241;-59
2023/01/21 09:31:20;;;;;;;0.00;0.00;;;;;;;-0.91;82.72;99382.09;4931536;28;20281;-58
2023/01/21 09:33:50;;;;;;;0.00;0.00;;;;;;;-0.69;81.83;99385.53;4924175;28;20718;-57
2023/01/21 09:36:19;;;;;;;0.00;0.00;;;;;;;-0.68;81.08;99384.63;4918855;29;20235;-57
2023/01/21 09:38:47;;;;;;;0.00;0.00;;;;;;;-0.68;79.61;99387.19;4923046;28;20231;-58
2023/01/21 09:41:23;;;;;;;0.00;0.00;;;;;;;-0.63;79.79;99393.84;4924662;28;20258;-58
2023/01/21 09:44:06;;;;;;;0.00;0.00;;;;;;;-0.48;78.55;99394.94;4920781;28;20234;-58
2023/01/21 09:46:40;;;;;;;0.00;0.00;;;;;;;-0.66;79.45;99405.94;4925559;28;20230;-57
2023/01/21 09:49:15;;;;;;;0.00;0.00;;;;;;;-0.71;79.84;99410.41;4930037;28;20248;-57
2023/01/21 09:51:49;;;;;;;0.00;0.00;;;;;;;-0.78;79.54;99408.06;4930577;28;20698;-56
2023/01/21 09:54:23;;;;;;;0.00;0.00;;;;;;;-0.82;80.29;99409.09;4928525;28;20236;-54
2023/01/21 09:57:00;;;;;;;0.00;0.00;;;;;;;-0.73;79.73;99418.16;4927025;28;20231;-55
2023/01/21 09:59:38;;;;;;;0.00;0.00;;;;;;;-0.77;79.96;99414.88;4929395;28;20302;-56
2023/01/21 10:02:16;;;;;;;0.00;0.00;;;;;;;-0.67;80.21;99411.94;4926614;28;20230;-57
2023/01/21 10:04:52;;;;;;;0.00;0.00;;;;;;;-0.57;79.25;99413.25;4927469;28;20230;-57
2023/01/21 10:07:26;;;;;;;0.00;0.00;;;;;;;-0.57;78.50;99418.38;4928885;28;20236;-55
2023/01/21 10:10:07;;;;;;;0.00;0.00;;;;;;;-0.49;79.25;99416.34;4922394;28;20248;-57
2023/01/21 10:12:50;;;;;;;0.00;0.00;;;;;;;-0.56;79.42;99420.06;4936442;28;20647;-56
2023/01/21 10:15:41;;;;;;;0.00;0.00;;;;;;;-0.47;78.72;99419.69;4926717;28;20245;-57
2023/01/21 10:18:11;;;;;;;0.00;0.00;;;;;;;-0.37;78.02;99414.19;4920337;28;20241;-57
2023/01/21 10:20:45;;;;;;;0.00;0.00;;;;;;;-0.30;76.76;99415.63;4925287;28;20642;-57
2023/01/21 10:23:17;;;;;;;0.00;0.00;;;;;;;-0.23;76.87;99411.06;4930236;28;20269;-56
2023/01/21 10:25:48;;;;;;;0.00;0.00;;;;;;;-0.19;76.63;99418.59;4925785;28;20234;-55
2023/01/21 10:28:21;;;;;;;0.00;0.00;;;;;;;-0.26;76.26;99411.19;4928046;28;20227;-56
2023/01/21 10:30:51;;;;;;;0.00;0.00;;;;;;;-0.42;76.57;99410.97;4920917;28;20245;-56
2023/01/21 10:33:20;;;;;;;0.00;0.00;;;;;;;-0.31;76.41;99407.06;4932058;28;20240;-57
2023/01/21 10:36:07;;;;;;;0.00;0.00;;;;;;;-0.24;76.01;99404.25;4930572;28;20313;-58
2023/01/21 10:38:41;;;;;;;0.00;0.00;;;;;;;-0.02;75.25;99412.75;4927488;28;20240;-57
2023/01/21 10:41:24;;;;;;;0.00;0.00;;;;;;;-0.01;75.01;99411.03;4932778;28;20240;-58
2023/01/21 10:43:58;;;;;;;0.00;0.00;;;;;;;-0.11;74.46;99407.19;4927179;28;20254;-58
2023/01/21 10:46:31;;;;;;;0.00;0.00;;;;;;;0.00;74.85;99397.28;4933513;28;20294;-57
2023/01/21 10:49:11;;;;;;;0.00;0.00;;;;;;;-0.13;74.48;99406.41;4927576;28;20307;-57
2023/01/21 10:51:45;;;;;;;0.00;0.00;;;;;;;-0.02;75.62;99407.63;4929405;28;20675;-54
2023/01/21 10:54:22;;;;;;;0.00;0.00;;;;;;;0.22;75.46;99409.19;4925687;28;21246;-57
2023/01/21 10:56:55;;;;;;;0.00;0.00;;;;;;;-0.09;76.74;99410.50;4927352;28;20241;-58
2023/01/21 10:59:27;;;;;;;0.00;0.00;;;;;;;-0.17;77.84;99411.66;4931942;28;20240;-55
2023/01/21 11:02:02;;;;;;;0.00;0.00;;;;;;;-0.08;77.55;99407.06;4933465;28;20646;-56
2023/01/21 11:04:29;;;;;;;0.00;0.00;;;;;;;-0.15;77.51;99406.44;4928702;28;20781;-57
2023/01/21 11:07:01;;;;;;;0.00;0.00;;;;;;;-0.02;77.15;99409.34;4927832;28;20249;-56
2023/01/21 11:09:32;;;;;;;0.00;0.00;;;;;;;-0.16;78.00;99403.06;4930285;28;20228;-56
2023/01/21 11:11:59;;;;;;;0.00;0.00;;;;;;;-0.10;78.32;99401.97;4929200;28;20629;-57
2023/01/21 11:14:26;;;;;;;0.00;0.00;;;;;;;-0.01;76.40;99396.44;4930157;28;20261;-56
2023/01/21 11:16:53;;;;;;;0.00;0.00;;;;;;;-0.02;77.21;99399.91;4925182;28;20781;-56
2023/01/21 11:19:23;;;;;;;0.00;0.00;;;;;;;-0.05;78.63;99405.19;4932463;28;20288;-57
2023/01/21 11:22:03;;;;;;;0.00;0.00;;;;;;;-0.14;78.30;99405.56;4927818;28;20628;-57
2023/01/21 11:24:31;;;;;;;0.00;0.00;;;;;;;-0.06;77.52;99402.69;4927220;28;20321;-57
2023/01/21 11:27:00;;;;;;;0.00;0.00;;;;;;;0.08;78.00;99420.88;4925977;28;20234;-57
2023/01/21 11:29:38;;;;;;;0.00;0.00;;;;;;;-0.20;79.28;99416.91;4930188;28;20234;-57
2023/01/21 11:32:12;;;;;;;0.00;0.00;;;;;;;-0.24;78.76;99427.34;4929616;28;20237;-57
2023/01/21 11:34:43;;;;;;;0.00;0.00;;;;;;;-0.37;79.96;99419.31;4926804;28;20292;-56
2023/01/21 11:37:22;;;;;;;0.00;0.00;;;;;;;-0.10;78.51;99419.09;4934550;28;20233;-57
2023/01/21 11:39:53;;;;;;;0.00;0.00;;;;;;;-0.41;79.92;99410.09;4926639;28;20331;-57
2023/01/21 11:42:20;;;;;;;0.00;0.00;;;;;;;-0.21;80.21;99412.69;4928736;28;20240;-57
2023/01/21 11:44:52;;;;;;;0.00;0.00;;;;;;;-0.08;78.81;99419.88;4921545;28;20306;-55
2023/01/21 11:47:28;;;;;;;0.00;0.00;;;;;;;0.08;77.16;99405.47;4929487;28;20252;-57